createdAt,value
2018-06-30T00:02:30.102Z,33.26
2018-06-30T00:05:02.966Z,33.25
2018-06-30T00:07:35.908Z,33.25
2018-06-30T00:10:09.196Z,33.27
2018-06-30T00:12:42.974Z,33.25
2018-06-30T00:15:15.774Z,33.24
2018-06-30T00:17:48.962Z,33.23
2018-06-30T00:20:21.957Z,33.23
2018-06-30T00:22:54.648Z,33.20
2018-06-30T00:25:26.861Z,33.22
2018-06-30T00:27:59.974Z,33.19
2018-06-30T00:30:32.598Z,33.18
2018-06-30T00:33:05.884Z,33.19
2018-06-30T00:35:38.564Z,33.20
2018-06-30T00:38:11.891Z,33.19
2018-06-30T00:40:44.141Z,33.15
2018-06-30T00:43:16.907Z,33.18
2018-06-30T00:45:49.764Z,33.18
2018-06-30T00:48:22.901Z,33.17
2018-06-30T00:50:55.076Z,33.16
2018-06-30T00:53:27.787Z,33.19
2018-06-30T00:56:00.478Z,33.19
2018-06-30T00:58:33.159Z,33.15
2018-06-30T01:01:05.922Z,33.15
2018-06-30T01:03:38.899Z,33.16
2018-06-30T01:06:11.895Z,33.14
2018-06-30T01:08:44.638Z,33.14
2018-06-30T01:11:17.432Z,33.15
2018-06-30T01:13:51.067Z,33.15
2018-06-30T01:16:23.878Z,33.14
2018-06-30T01:18:56.615Z,33.13
2018-06-30T01:21:29.074Z,33.14
2018-06-30T01:24:01.974Z,33.13
2018-06-30T01:26:34.895Z,33.15
2018-06-30T01:29:08.191Z,33.15
2018-06-30T01:31:41.137Z,33.14
2018-06-30T01:34:14.235Z,33.14
2018-06-30T01:36:46.789Z,33.13
2018-06-30T01:39:18.948Z,33.12
2018-06-30T01:41:51.668Z,33.12
2018-06-30T01:44:24.734Z,33.14
2018-06-30T01:46:57.146Z,33.12
2018-06-30T01:49:29.967Z,33.12
2018-06-30T01:52:03.240Z,33.11
2018-06-30T01:54:35.633Z,33.11
2018-06-30T01:57:08.929Z,33.13
2018-06-30T01:59:42.105Z,33.11
2018-06-30T02:02:14.782Z,33.10
2018-06-30T02:04:47.697Z,33.10
2018-06-30T02:07:20.679Z,33.10
2018-06-30T02:09:53.206Z,33.12
2018-06-30T02:12:25.352Z,33.11
2018-06-30T02:14:58.797Z,33.11
2018-06-30T02:17:30.568Z,33.11
2018-06-30T02:20:02.553Z,33.09
2018-06-30T02:22:35.501Z,33.08
2018-06-30T02:25:08.476Z,33.10
2018-06-30T02:27:40.839Z,33.09
2018-06-30T02:30:13.868Z,33.09
2018-06-30T02:32:46.502Z,33.11
2018-06-30T02:35:18.980Z,33.10
2018-06-30T02:37:51.752Z,33.07
2018-06-30T02:40:25.519Z,33.07
2018-06-30T02:42:58.776Z,33.07
2018-06-30T02:45:31.798Z,33.09
2018-06-30T02:48:04.811Z,33.08
2018-06-30T02:50:38.312Z,33.06
2018-06-30T02:53:11.625Z,33.08
2018-06-30T02:55:44.265Z,33.11
2018-06-30T02:58:17.234Z,33.09
2018-06-30T03:00:50.179Z,33.08
2018-06-30T03:03:23.320Z,33.11
2018-06-30T03:05:56.192Z,33.08
2018-06-30T03:08:28.520Z,33.05
2018-06-30T03:11:02.795Z,33.06
2018-06-30T03:13:35.588Z,33.09
2018-06-30T03:16:08.374Z,33.09
2018-06-30T03:18:40.602Z,33.11
2018-06-30T03:23:33.448Z,33.08
2018-06-30T03:26:06.419Z,33.12
2018-06-30T03:28:39.364Z,33.09
2018-06-30T03:31:12.306Z,33.11
2018-06-30T03:33:45.260Z,33.08
2018-06-30T03:36:17.869Z,33.12
2018-06-30T03:38:50.733Z,33.13
2018-06-30T03:41:22.879Z,33.12
2018-06-30T03:43:55.785Z,33.14
2018-06-30T03:46:28.396Z,33.14
2018-06-30T03:49:01.512Z,33.09
2018-06-30T03:51:34.017Z,33.13
2018-06-30T03:54:06.687Z,33.12
2018-06-30T03:56:38.982Z,33.12
2018-06-30T03:59:12.110Z,33.13
2018-06-30T04:01:45.108Z,33.14
2018-06-30T04:04:18.435Z,33.14
2018-06-30T04:06:52.425Z,33.11
2018-06-30T04:09:25.779Z,33.12
2018-06-30T04:11:59.644Z,33.16
2018-06-30T04:14:32.823Z,33.13
2018-06-30T04:17:05.254Z,33.16
2018-06-30T04:19:39.377Z,33.17
2018-06-30T04:22:12.188Z,33.15
2018-06-30T04:24:44.736Z,33.15
2018-06-30T04:27:17.418Z,33.15
2018-06-30T04:29:49.324Z,32.79
2018-06-30T04:32:22.178Z,32.64
2018-06-30T04:34:55.131Z,32.94
2018-06-30T04:37:27.856Z,33.08
2018-06-30T04:40:00.587Z,33.12
2018-06-30T04:42:34.379Z,33.13
2018-06-30T04:45:08.326Z,33.14
2018-06-30T04:47:40.964Z,33.16
2018-06-30T04:50:13.832Z,33.15
2018-06-30T04:52:46.102Z,33.15
2018-06-30T04:55:19.313Z,33.16
2018-06-30T04:57:51.306Z,33.15
2018-06-30T05:00:23.694Z,33.24
2018-06-30T05:02:56.786Z,33.20
2018-06-30T05:05:29.364Z,33.22
2018-06-30T05:08:02.121Z,33.21
2018-06-30T05:10:34.871Z,33.22
2018-06-30T05:13:08.787Z,33.20
2018-06-30T05:15:41.827Z,33.19
2018-06-30T05:18:13.798Z,33.19
2018-06-30T05:20:47.100Z,33.21
2018-06-30T05:23:19.650Z,33.23
2018-06-30T05:25:52.548Z,33.21
2018-06-30T05:28:25.078Z,33.22
2018-06-30T05:30:57.570Z,33.20
2018-06-30T05:33:30.607Z,33.21
2018-06-30T05:36:04.120Z,33.16
2018-06-30T05:38:36.826Z,33.22
2018-06-30T05:41:09.504Z,33.25
2018-06-30T05:43:42.147Z,33.22
2018-06-30T05:46:15.136Z,33.22
2018-06-30T05:48:48.044Z,33.19
2018-06-30T05:51:21.589Z,33.27
2018-06-30T05:53:54.361Z,33.27
2018-06-30T05:56:27.135Z,33.28
2018-06-30T05:58:59.763Z,33.27
2018-06-30T06:01:32.699Z,33.27
2018-06-30T06:04:05.653Z,33.28
2018-06-30T06:06:39.201Z,33.28
2018-06-30T06:09:13.410Z,33.26
2018-06-30T06:11:46.522Z,33.30
2018-06-30T06:14:21.045Z,33.32
2018-06-30T06:16:54.132Z,33.29
2018-06-30T06:19:27.137Z,33.31
2018-06-30T06:22:00.175Z,33.32
2018-06-30T06:24:32.997Z,33.29
2018-06-30T06:27:06.058Z,33.28
2018-06-30T06:29:38.230Z,33.32
2018-06-30T06:32:11.095Z,33.31
2018-06-30T06:34:43.960Z,33.38
2018-06-30T06:37:17.208Z,33.38
2018-06-30T06:39:49.723Z,33.38
2018-06-30T06:42:24.558Z,33.41
2018-06-30T06:44:57.018Z,33.38
2018-06-30T06:47:29.893Z,33.41
2018-06-30T06:50:03.540Z,33.44
2018-06-30T06:52:36.122Z,33.50
2018-06-30T06:55:09.905Z,33.50
2018-06-30T06:57:42.712Z,33.49
2018-06-30T07:00:15.756Z,33.52
2018-06-30T07:02:48.474Z,33.53
2018-06-30T07:05:21.161Z,33.55
2018-06-30T07:07:54.202Z,33.54
2018-06-30T07:10:26.775Z,33.54
2018-06-30T07:12:59.622Z,33.53
2018-06-30T07:15:32.650Z,33.54
2018-06-30T07:18:08.949Z,33.53
2018-06-30T07:20:41.269Z,33.57
2018-06-30T07:23:13.896Z,33.57
2018-06-30T07:25:46.519Z,33.58
2018-06-30T07:28:19.339Z,33.55
2018-06-30T07:30:56.557Z,33.54
2018-06-30T07:33:31.340Z,33.56
2018-06-30T07:36:04.399Z,33.60
2018-06-30T07:38:36.623Z,33.61
2018-06-30T07:41:09.790Z,33.61
2018-06-30T07:43:44.126Z,33.63
2018-06-30T07:46:22.764Z,33.62
2018-06-30T07:48:55.383Z,33.64
2018-06-30T07:51:27.635Z,33.60
2018-06-30T07:54:03.240Z,33.65
2018-06-30T07:56:35.603Z,33.69
2018-06-30T07:59:08.959Z,33.64
2018-06-30T08:01:41.929Z,33.63
2018-06-30T08:04:14.297Z,33.67
2018-06-30T08:06:47.624Z,33.67
2018-06-30T08:09:20.700Z,33.65
2018-06-30T08:11:54.340Z,33.69
2018-06-30T08:14:27.338Z,33.65
2018-06-30T08:17:00.856Z,33.72
2018-06-30T08:19:34.092Z,33.76
2018-06-30T08:22:06.481Z,33.77
2018-06-30T08:24:39.753Z,33.76
2018-06-30T08:27:12.298Z,33.77
2018-06-30T08:29:45.411Z,33.80
2018-06-30T08:32:18.112Z,33.81
2018-06-30T08:34:51.072Z,33.85
2018-06-30T08:37:24.099Z,33.84
2018-06-30T08:39:56.514Z,33.84
2018-06-30T08:42:29.492Z,33.84
2018-06-30T08:45:02.521Z,33.83
2018-06-30T08:47:35.091Z,33.89
2018-06-30T08:50:07.506Z,33.91
2018-06-30T08:52:40.316Z,33.92
2018-06-30T08:55:13.060Z,33.95
2018-06-30T08:57:45.849Z,33.96
2018-06-30T09:00:18.783Z,33.92
2018-06-30T09:02:51.431Z,33.93
2018-06-30T09:05:24.212Z,33.98
2018-06-30T09:07:56.716Z,33.99
2018-06-30T09:10:29.431Z,34.00
2018-06-30T09:13:02.022Z,34.03
2018-06-30T09:15:34.727Z,34.06
2018-06-30T09:18:09.888Z,34.05
2018-06-30T09:20:43.317Z,34.08
2018-06-30T09:23:16.069Z,34.03
2018-06-30T09:25:49.149Z,34.05
2018-06-30T09:28:21.804Z,34.13
2018-06-30T09:30:54.612Z,34.19
2018-06-30T09:33:27.863Z,34.14
2018-06-30T09:36:00.878Z,34.14
2018-06-30T09:38:33.250Z,34.13
2018-06-30T09:41:06.218Z,34.11
2018-06-30T09:43:38.679Z,34.14
2018-06-30T09:46:14.649Z,34.17
2018-06-30T09:48:47.689Z,34.12
2018-06-30T09:51:21.655Z,34.11
2018-06-30T09:53:55.243Z,34.17
2018-06-30T09:56:28.553Z,34.19
2018-06-30T09:59:01.672Z,34.21
2018-06-30T10:01:34.571Z,34.21
2018-06-30T10:04:07.215Z,34.20
2018-06-30T10:06:40.587Z,34.21
2018-06-30T10:09:13.904Z,34.27
2018-06-30T10:11:47.364Z,34.31
2018-06-30T10:14:24.120Z,34.28
2018-06-30T10:16:57.877Z,34.30
2018-06-30T10:19:30.847Z,34.27
2018-06-30T10:22:05.561Z,34.31
2018-06-30T10:24:38.204Z,34.32
2018-06-30T10:27:10.997Z,34.28
2018-06-30T10:29:43.787Z,34.33
2018-06-30T10:32:16.623Z,34.31
2018-06-30T10:34:49.921Z,34.34
2018-06-30T10:37:23.313Z,34.38
2018-06-30T10:40:01.606Z,34.39
2018-06-30T10:42:34.787Z,34.42
2018-06-30T10:45:07.999Z,34.47
2018-06-30T10:47:41.041Z,34.43
2018-06-30T10:50:14.145Z,34.42
2018-06-30T10:52:47.223Z,34.38
2018-06-30T10:55:20.588Z,34.44
2018-06-30T10:57:53.797Z,34.46
2018-06-30T11:00:26.866Z,34.51
2018-06-30T11:02:59.812Z,34.50
2018-06-30T11:05:32.303Z,34.48
2018-06-30T11:08:05.475Z,34.56
2018-06-30T11:10:38.245Z,34.51
2018-06-30T11:13:11.034Z,34.59
2018-06-30T11:15:43.635Z,34.63
2018-06-30T11:18:16.773Z,34.56
2018-06-30T11:20:49.351Z,34.57
2018-06-30T11:23:22.818Z,34.57
2018-06-30T11:25:55.803Z,34.55
2018-06-30T11:28:28.757Z,34.57
2018-06-30T11:31:01.764Z,34.55
2018-06-30T11:33:34.733Z,34.52
2018-06-30T11:36:07.702Z,34.56
2018-06-30T11:38:40.476Z,34.58
2018-06-30T11:41:12.889Z,34.59
2018-06-30T11:43:50.554Z,34.61
2018-06-30T11:46:23.347Z,34.64
2018-06-30T11:48:57.890Z,34.64
2018-06-30T11:51:29.820Z,34.62
2018-06-30T11:54:02.267Z,34.65
2018-06-30T11:56:35.109Z,34.66
2018-06-30T11:59:08.669Z,34.69
2018-06-30T12:01:41.080Z,34.68
2018-06-30T12:04:13.603Z,34.69
2018-06-30T12:06:46.129Z,34.69
2018-06-30T12:09:19.428Z,34.64
2018-06-30T12:11:52.023Z,34.67
2018-06-30T12:14:24.921Z,34.66
2018-06-30T12:16:58.206Z,34.65
2018-06-30T12:19:31.506Z,34.67
2018-06-30T12:22:04.174Z,34.63
2018-06-30T12:24:38.531Z,34.66
2018-06-30T12:27:11.561Z,34.65
2018-06-30T12:29:44.518Z,34.72
2018-06-30T12:32:17.548Z,34.75
2018-06-30T12:34:50.237Z,34.73
2018-06-30T12:37:22.984Z,34.76
2018-06-30T12:39:55.466Z,34.68
2018-06-30T12:42:29.287Z,34.71
2018-06-30T12:45:02.544Z,34.71
2018-06-30T12:47:35.790Z,34.72
2018-06-30T12:50:09.160Z,34.69
2018-06-30T12:52:42.347Z,34.66
2018-06-30T12:55:16.157Z,34.67
2018-06-30T12:57:49.269Z,34.65
2018-06-30T13:00:22.086Z,34.65
2018-06-30T13:02:55.227Z,34.69
2018-06-30T13:05:28.075Z,34.69
2018-06-30T13:08:01.050Z,34.67
2018-06-30T13:10:33.186Z,34.66
2018-06-30T13:13:06.311Z,34.67
2018-06-30T13:15:39.173Z,34.67
2018-06-30T13:18:12.041Z,34.68
2018-06-30T13:20:45.541Z,34.68
2018-06-30T13:23:18.591Z,34.69
2018-06-30T13:25:51.810Z,34.65
2018-06-30T13:28:25.365Z,34.68
2018-06-30T13:30:58.482Z,34.65
2018-06-30T13:33:31.939Z,34.65
2018-06-30T13:36:05.223Z,34.67
2018-06-30T13:38:38.238Z,34.56
2018-06-30T13:41:11.926Z,34.60
2018-06-30T13:43:45.437Z,34.62
2018-06-30T13:46:18.442Z,34.60
2018-06-30T13:48:51.547Z,34.62
2018-06-30T13:51:24.708Z,34.63
2018-06-30T13:53:57.709Z,34.63
2018-06-30T13:56:30.826Z,34.63
2018-06-30T13:59:03.916Z,34.64
2018-06-30T14:01:35.951Z,34.64
2018-06-30T14:04:07.966Z,34.64
2018-06-30T14:06:39.870Z,34.62
2018-06-30T14:09:13.650Z,34.64
2018-06-30T14:11:46.329Z,34.62
2018-06-30T14:14:18.430Z,34.61
2018-06-30T14:16:50.304Z,34.61
2018-06-30T14:19:22.573Z,34.61
2018-06-30T14:21:55.079Z,34.62
2018-06-30T14:24:28.072Z,34.57
2018-06-30T14:27:01.075Z,34.57
2018-06-30T14:29:34.017Z,34.60
2018-06-30T14:32:07.000Z,34.57
2018-06-30T14:34:40.107Z,34.59
2018-06-30T14:37:12.958Z,34.57
2018-06-30T14:39:45.940Z,34.55
2018-06-30T14:42:18.849Z,34.58
2018-06-30T14:44:52.559Z,34.59
2018-06-30T14:47:25.635Z,34.58
2018-06-30T14:49:58.223Z,34.60
2018-06-30T14:52:30.762Z,34.59
2018-06-30T14:55:03.762Z,34.59
2018-06-30T14:57:36.492Z,34.60
2018-06-30T15:00:09.995Z,34.58
2018-06-30T15:02:42.939Z,34.55
2018-06-30T15:05:16.157Z,34.58
2018-06-30T15:07:49.266Z,34.56
2018-06-30T15:10:22.100Z,34.55
2018-06-30T15:12:54.811Z,34.53
2018-06-30T15:15:27.501Z,34.55
2018-06-30T15:17:59.980Z,34.56
2018-06-30T15:20:32.778Z,34.55
2018-06-30T15:23:05.338Z,34.52
2018-06-30T15:25:38.070Z,34.51
2018-06-30T15:28:11.197Z,34.49
2018-06-30T15:30:44.460Z,34.54
2018-06-30T15:33:16.528Z,34.53
2018-06-30T15:35:50.075Z,34.54
2018-06-30T15:38:23.016Z,34.57
2018-06-30T15:40:56.193Z,34.55
2018-06-30T15:43:29.117Z,34.55
2018-06-30T15:46:02.633Z,34.55
2018-06-30T15:48:35.295Z,34.57
2018-06-30T15:51:08.301Z,34.55
2018-06-30T15:53:41.515Z,34.56
2018-06-30T15:56:14.917Z,34.56
2018-06-30T15:58:48.294Z,34.57
2018-06-30T16:01:22.644Z,34.55
2018-06-30T16:03:55.720Z,34.53
2018-06-30T16:06:29.199Z,34.57
2018-06-30T16:09:02.153Z,34.55
2018-06-30T16:11:34.815Z,34.52
2018-06-30T16:14:08.270Z,34.52
2018-06-30T16:16:42.052Z,34.53
2018-06-30T16:19:14.812Z,34.57
2018-06-30T16:21:47.319Z,34.54
2018-06-30T16:24:20.130Z,34.54
2018-06-30T16:26:53.721Z,34.56
2018-06-30T16:29:26.697Z,34.55
2018-06-30T16:31:59.287Z,34.52
2018-06-30T16:34:32.092Z,34.54
2018-06-30T16:37:05.232Z,34.54
2018-06-30T16:39:38.001Z,34.53
2018-06-30T16:42:10.981Z,34.54
2018-06-30T16:44:44.164Z,34.53
2018-06-30T16:47:17.277Z,34.53
2018-06-30T16:49:50.697Z,34.53
2018-06-30T16:52:23.773Z,34.53
2018-06-30T16:54:56.959Z,34.53
2018-06-30T16:57:29.484Z,34.51
2018-06-30T17:00:02.667Z,34.51
2018-06-30T17:02:35.358Z,34.51
2018-06-30T17:05:08.016Z,34.51
2018-06-30T17:07:40.543Z,34.36
2018-06-30T17:10:13.150Z,34.25
2018-06-30T17:12:47.078Z,34.33
2018-06-30T17:15:20.256Z,34.35
2018-06-30T17:17:53.314Z,34.39
2018-06-30T17:20:26.053Z,34.43
2018-06-30T17:22:58.986Z,34.28
2018-06-30T17:25:31.748Z,34.38
2018-06-30T17:28:04.234Z,34.44
2018-06-30T17:30:36.845Z,34.44
2018-06-30T17:33:10.182Z,34.47
2018-06-30T17:35:42.191Z,34.47
2018-06-30T17:38:15.512Z,34.47
2018-06-30T17:40:47.873Z,34.48
2018-06-30T17:43:20.929Z,34.50
2018-06-30T17:45:53.857Z,34.51
2018-06-30T17:48:26.536Z,34.48
2018-06-30T17:50:59.956Z,34.50
2018-06-30T17:53:32.104Z,34.48
2018-06-30T17:56:05.138Z,34.48
2018-06-30T17:58:38.379Z,34.47
2018-06-30T18:01:11.325Z,34.46
2018-06-30T18:03:44.596Z,34.48
2018-06-30T18:06:17.596Z,34.50
2018-06-30T18:08:50.375Z,34.52
2018-06-30T18:11:23.104Z,34.50
2018-06-30T18:13:55.983Z,34.51
2018-06-30T18:16:28.918Z,34.51
2018-06-30T18:19:01.021Z,34.51
2018-06-30T18:21:33.929Z,34.49
2018-06-30T18:24:07.243Z,34.52
2018-06-30T18:26:39.973Z,34.49
2018-06-30T18:29:13.108Z,34.51
2018-06-30T18:31:46.704Z,34.53
2018-06-30T18:34:19.195Z,34.50
2018-06-30T18:36:52.626Z,34.50
2018-06-30T18:39:30.152Z,34.47
2018-06-30T18:42:03.100Z,34.50
2018-06-30T18:44:35.948Z,34.50
2018-06-30T18:47:08.614Z,34.48
2018-06-30T18:49:41.431Z,34.50
2018-06-30T18:52:14.149Z,34.50
2018-06-30T18:54:47.145Z,34.48
2018-06-30T18:57:20.032Z,34.48
2018-06-30T18:59:53.323Z,34.51
2018-06-30T19:02:26.795Z,34.48
2018-06-30T19:05:00.767Z,34.50
2018-06-30T19:07:35.745Z,34.52
2018-06-30T19:10:09.314Z,34.48
2018-06-30T19:12:42.056Z,34.51
2018-06-30T19:15:14.976Z,34.52
2018-06-30T19:17:48.082Z,34.51
2018-06-30T19:20:21.050Z,34.50
2018-06-30T19:22:53.903Z,34.34
2018-06-30T19:25:27.485Z,34.37
2018-06-30T19:28:00.364Z,34.43
2018-06-30T19:30:33.147Z,34.43
2018-06-30T19:33:06.285Z,34.43
2018-06-30T19:35:38.944Z,34.44
2018-06-30T19:38:12.072Z,34.44
2018-06-30T19:40:44.854Z,34.44
2018-06-30T19:43:17.934Z,34.47
2018-06-30T19:45:51.191Z,34.45
2018-06-30T19:48:23.771Z,34.46
2018-06-30T19:50:56.929Z,34.45
2018-06-30T19:53:29.421Z,34.45
2018-06-30T19:56:02.364Z,34.46
2018-06-30T19:58:34.942Z,34.44
2018-06-30T20:01:07.626Z,34.44
2018-06-30T20:03:40.314Z,34.46
2018-06-30T20:06:13.321Z,34.45
2018-06-30T20:08:46.429Z,34.47
2018-06-30T20:11:19.242Z,34.44
2018-06-30T20:13:52.497Z,34.43
2018-06-30T20:16:25.982Z,34.43
2018-06-30T20:18:58.360Z,34.43
2018-06-30T20:21:32.055Z,34.42
2018-06-30T20:24:05.166Z,34.43
2018-06-30T20:26:38.182Z,34.43
2018-06-30T20:29:10.602Z,34.41
2018-06-30T20:31:43.174Z,34.40
2018-06-30T20:34:16.150Z,34.40
2018-06-30T20:36:48.881Z,34.42
2018-06-30T20:39:22.187Z,34.43
2018-06-30T20:41:55.484Z,34.41
2018-06-30T20:44:28.501Z,34.40
2018-06-30T20:47:00.971Z,34.40
2018-06-30T20:49:34.167Z,34.41
2018-06-30T20:52:07.168Z,34.39
2018-06-30T20:54:40.392Z,34.39
2018-06-30T20:57:13.729Z,34.39
2018-06-30T20:59:47.064Z,34.36
2018-06-30T21:02:20.546Z,34.37
2018-06-30T21:04:53.207Z,34.35
2018-06-30T21:07:26.236Z,34.37
2018-06-30T21:09:58.289Z,34.37
2018-06-30T21:12:31.059Z,34.36
2018-06-30T21:15:03.347Z,34.35
2018-06-30T21:17:36.431Z,34.37
2018-06-30T21:20:09.496Z,34.38
2018-06-30T21:22:42.550Z,34.34
2018-06-30T21:25:14.863Z,34.33
2018-06-30T21:27:48.250Z,34.31
2018-06-30T21:30:21.438Z,34.35
2018-06-30T21:32:54.699Z,34.35
2018-06-30T21:35:27.666Z,34.37
2018-06-30T21:38:00.957Z,34.33
2018-06-30T21:40:33.388Z,34.33
2018-06-30T21:43:06.304Z,34.32
2018-06-30T21:45:39.027Z,34.31
2018-06-30T21:48:12.242Z,34.33
2018-06-30T21:50:45.192Z,34.32
2018-06-30T21:53:18.036Z,34.33
2018-06-30T21:55:50.082Z,34.31
2018-06-30T21:58:22.550Z,34.31
2018-06-30T22:01:00.596Z,34.31
2018-06-30T22:03:33.923Z,34.30
2018-06-30T22:06:06.849Z,34.29
2018-06-30T22:08:39.516Z,34.32
2018-06-30T22:11:12.712Z,34.28
2018-06-30T22:13:45.469Z,34.28
2018-06-30T22:16:18.545Z,34.29
2018-06-30T22:18:51.268Z,34.25
2018-06-30T22:21:24.058Z,34.27
2018-06-30T22:23:57.093Z,34.27
2018-06-30T22:26:29.596Z,34.25
2018-06-30T22:29:03.007Z,34.25
2018-06-30T22:31:35.869Z,34.24
2018-06-30T22:34:08.764Z,34.23
2018-06-30T22:36:41.544Z,34.25
2018-06-30T22:39:15.126Z,34.24
2018-06-30T22:41:48.305Z,34.23
2018-06-30T22:44:20.990Z,34.23
2018-06-30T22:46:53.320Z,34.22
2018-06-30T22:49:25.614Z,34.22
2018-06-30T22:51:58.559Z,34.20
2018-06-30T22:54:31.755Z,34.17
2018-06-30T22:57:03.767Z,34.18
2018-06-30T22:59:36.929Z,34.18
2018-06-30T23:02:09.039Z,34.17
2018-06-30T23:04:42.113Z,34.16
2018-06-30T23:07:14.651Z,34.16
2018-06-30T23:09:47.520Z,34.16
2018-06-30T23:12:20.749Z,34.13
2018-06-30T23:14:53.762Z,34.15
2018-06-30T23:17:26.111Z,34.15
2018-06-30T23:19:59.155Z,34.14
2018-06-30T23:22:43.996Z,34.13
2018-06-30T23:25:17.288Z,34.14
2018-06-30T23:27:50.233Z,34.12
2018-06-30T23:30:23.594Z,34.14
2018-06-30T23:32:56.546Z,34.12
2018-06-30T23:35:30.666Z,34.12
2018-06-30T23:38:04.338Z,34.11
2018-06-30T23:40:37.822Z,34.09
2018-06-30T23:43:10.858Z,34.08
2018-06-30T23:45:43.592Z,34.07
2018-06-30T23:48:16.514Z,34.09
2018-06-30T23:50:49.989Z,34.10
2018-06-30T23:53:22.294Z,34.08
2018-06-30T23:55:55.406Z,34.07
2018-06-30T23:58:28.524Z,34.05
